joomla templates top joomla templates template joomla

King Air Abend

Notam

C3641/14 - CUSTOMS AVBL PPR, TEL 0049 9561 92098. 13 NOV 14:46 2014 UNTIL PERM. CREATED: 13 NOV 14:47 2014

Aerodrome Terminal Information Service (ATIS) Coburg

METAR
EDQC 292150Z AUTO 23009KT 9999 SCT048 BKN055 18/17 Q1016=

METAR und TAF der Umgebung

[Quelle: ADDS]
METAR
EDDF 292320Z 22007KT CAVOK 18/12 Q1015 NOSIG =
EDDN 292320Z VRB02KT CAVOK 14/11 Q1017 =
EDDE 292320Z 23009KT CAVOK 17/11 Q1014 =
TAF
EDDF 292300Z 3000/0106 20006KT 9999 FEW045 BECMG 3006/3008 BKN040 BECMG 3011/3013 30007KT BECMG 3017/3019 VRB03KT TEMPO 0100/0106 RA =
EDDN 292300Z 3000/3024 14004KT CAVOK BECMG 3008/3010 25010KT BECMG 3016/3018 VRB03KT =
EDDE 292300Z 3000/3024 22009KT 9999 SCT045 BECMG 3009/3011 29010KT BECMG 3015/3017 22006KT =
SR / SS: 05:17 / 16:57 UTC (EDQC 2016-09-30)

Verkehrslandeplatz Coburg Brandensteinsebene
Tower
Zur Brandensteinsebene
96450 Coburg

AeroClub Logo 200px

Aero Club Coburg e. V.
Postfach 11 09
96401 Coburg